createdAt,value
2023-01-20T00:01:49.295Z,14.56
2023-01-20T00:04:21.649Z,14.41
2023-01-20T00:06:51.374Z,14.41
2023-01-20T00:09:20.707Z,14.46
2023-01-20T00:11:50.045Z,14.59
2023-01-20T00:14:19.400Z,14.59
2023-01-20T00:16:48.505Z,14.52
2023-01-20T00:19:20.507Z,14.51
2023-01-20T00:21:50.136Z,14.51
2023-01-20T00:24:19.469Z,14.56
2023-01-20T00:26:48.592Z,14.60
2023-01-20T00:29:17.900Z,14.60
2023-01-20T00:31:47.290Z,14.55
2023-01-20T00:34:16.528Z,14.43
2023-01-20T00:36:45.616Z,14.45
2023-01-20T00:39:14.818Z,14.49
2023-01-20T00:41:43.985Z,14.37
2023-01-20T00:44:12.836Z,14.48
2023-01-20T00:46:42.122Z,14.58
2023-01-20T00:49:12.232Z,14.47
2023-01-20T00:51:41.244Z,14.44
2023-01-20T00:54:10.746Z,14.46
2023-01-20T00:56:40.186Z,14.50
2023-01-20T00:59:11.753Z,14.61
2023-01-20T01:01:42.230Z,14.59
2023-01-20T01:04:12.625Z,14.47
2023-01-20T01:06:44.956Z,14.58
2023-01-20T01:09:14.877Z,14.81
2023-01-20T01:11:48.891Z,14.65
2023-01-20T01:14:20.136Z,14.65
2023-01-20T01:16:50.611Z,14.58
2023-01-20T01:19:21.050Z,14.64
2023-01-20T01:21:51.110Z,14.64
2023-01-20T01:24:20.597Z,14.53
2023-01-20T01:26:51.017Z,14.51
2023-01-20T01:29:20.396Z,14.48
2023-01-20T01:31:49.913Z,14.51
2023-01-20T01:34:19.242Z,14.56
2023-01-20T01:36:48.837Z,14.54
2023-01-20T01:39:18.049Z,14.44
2023-01-20T01:41:47.276Z,14.51
2023-01-20T01:44:16.868Z,14.55
2023-01-20T01:46:46.019Z,14.59
2023-01-20T01:49:24.213Z,14.76
2023-01-20T01:52:05.476Z,14.77
2023-01-20T01:54:41.506Z,14.81
2023-01-20T01:57:11.416Z,14.71
2023-01-20T01:59:41.119Z,14.59
2023-01-20T02:02:10.604Z,14.64
2023-01-20T02:04:39.922Z,14.62
2023-01-20T02:07:19.344Z,14.82
2023-01-20T02:09:49.454Z,14.64
2023-01-20T02:12:22.167Z,14.74
2023-01-20T02:14:56.126Z,14.78
2023-01-20T02:17:31.687Z,14.84
2023-01-20T02:20:38.574Z,14.85
2023-01-20T02:23:15.975Z,14.76
2023-01-20T02:26:06.561Z,14.88
2023-01-20T02:28:52.829Z,14.89
2023-01-20T02:31:34.843Z,14.85
2023-01-20T02:34:13.071Z,14.63
2023-01-20T02:37:20.231Z,14.82
2023-01-20T02:39:55.358Z,14.71
2023-01-20T02:42:45.007Z,14.67
2023-01-20T02:45:37.937Z,14.67
2023-01-20T02:48:14.541Z,14.81
2023-01-20T02:51:05.309Z,14.55
2023-01-20T02:53:42.032Z,14.69
2023-01-20T02:56:14.303Z,14.65
2023-01-20T02:59:14.587Z,14.73
2023-01-20T03:02:17.990Z,14.74
2023-01-20T03:04:54.160Z,14.75
2023-01-20T03:07:28.300Z,14.80
2023-01-20T03:10:02.811Z,14.79
2023-01-20T03:12:42.328Z,14.72
2023-01-20T03:15:13.137Z,14.82
2023-01-20T03:17:43.053Z,14.84
2023-01-20T03:20:12.734Z,14.89
2023-01-20T03:22:42.605Z,14.90
2023-01-20T03:25:16.070Z,15.00
2023-01-20T03:27:45.651Z,14.90
2023-01-20T03:30:16.830Z,14.98
2023-01-20T03:32:50.053Z,14.96
2023-01-20T03:35:20.133Z,14.95
2023-01-20T03:37:49.571Z,15.05
2023-01-20T03:40:19.292Z,15.06
2023-01-20T03:42:58.602Z,15.32
2023-01-20T03:45:54.393Z,15.29
2023-01-20T03:48:45.358Z,15.22
2023-01-20T03:51:27.401Z,15.24
2023-01-20T03:54:14.462Z,15.28
2023-01-20T03:57:13.669Z,15.25
2023-01-20T03:59:46.027Z,15.14
2023-01-20T04:02:15.989Z,15.16
2023-01-20T04:04:48.645Z,15.26
2023-01-20T04:07:23.425Z,15.47
2023-01-20T04:09:55.839Z,15.26
2023-01-20T04:12:25.346Z,15.26
2023-01-20T04:14:54.602Z,15.31
2023-01-20T04:17:31.165Z,15.48
2023-01-20T04:20:11.549Z,15.43
2023-01-20T04:22:42.822Z,15.43
2023-01-20T04:25:32.288Z,15.66
2023-01-20T04:28:02.209Z,15.52
2023-01-20T04:30:31.536Z,15.56
2023-01-20T04:33:01.163Z,15.63
2023-01-20T04:35:30.453Z,15.38
2023-01-20T04:38:00.098Z,15.47
2023-01-20T04:40:29.631Z,15.41
2023-01-20T04:42:59.002Z,15.54
2023-01-20T04:45:28.763Z,15.61
2023-01-20T04:47:58.603Z,15.61
2023-01-20T04:50:28.020Z,15.68
2023-01-20T04:53:00.623Z,15.69
2023-01-20T04:55:30.688Z,15.64
2023-01-20T04:58:00.462Z,15.69
2023-01-20T05:00:30.221Z,15.76
2023-01-20T05:03:00.214Z,15.77
2023-01-20T05:05:30.248Z,15.74
2023-01-20T05:08:00.731Z,15.78
2023-01-20T05:10:30.807Z,15.87
2023-01-20T05:13:00.514Z,15.87
2023-01-20T05:15:30.057Z,15.85
2023-01-20T05:17:59.592Z,15.91
2023-01-20T05:20:30.394Z,15.97
2023-01-20T05:23:01.358Z,15.94
2023-01-20T05:25:31.140Z,15.90
2023-01-20T05:28:02.978Z,16.00
2023-01-20T05:30:32.411Z,16.05
2023-01-20T05:33:02.204Z,16.06
2023-01-20T05:35:32.101Z,16.01
2023-01-20T05:38:01.385Z,15.89
2023-01-20T05:40:31.055Z,15.84
2023-01-20T05:43:04.322Z,16.15
2023-01-20T05:45:34.474Z,15.88
2023-01-20T05:48:04.347Z,16.01
2023-01-20T05:50:33.725Z,16.10
2023-01-20T05:53:03.287Z,16.05
2023-01-20T05:55:33.396Z,16.09
2023-01-20T05:58:06.274Z,16.24
2023-01-20T06:00:36.421Z,16.09
2023-01-20T06:03:06.861Z,15.97
2023-01-20T06:05:37.204Z,15.97
2023-01-20T06:08:06.972Z,15.76
2023-01-20T06:10:37.083Z,15.92
2023-01-20T06:13:06.540Z,16.02
2023-01-20T06:15:35.771Z,15.92
2023-01-20T06:18:05.283Z,15.64
2023-01-20T06:20:34.655Z,16.05
2023-01-20T06:23:03.955Z,16.15
2023-01-20T06:25:33.715Z,16.08
2023-01-20T06:28:03.713Z,16.19
2023-01-20T06:30:33.058Z,15.69
2023-01-20T06:33:02.627Z,15.97
2023-01-20T06:35:34.709Z,15.94
2023-01-20T06:38:04.220Z,16.21
2023-01-20T06:40:34.270Z,16.00
2023-01-20T06:43:04.153Z,16.02
2023-01-20T06:45:33.485Z,15.70
2023-01-20T06:48:02.971Z,15.97
2023-01-20T06:50:35.506Z,16.29
2023-01-20T06:53:04.875Z,16.23
2023-01-20T06:55:34.411Z,16.17
2023-01-20T06:58:03.515Z,15.99
2023-01-20T07:00:32.741Z,16.09
2023-01-20T07:03:02.028Z,16.10
2023-01-20T07:05:31.068Z,15.98
2023-01-20T07:08:00.467Z,15.96
2023-01-20T07:10:29.616Z,16.03
2023-01-20T07:12:59.068Z,15.91
2023-01-20T07:15:28.338Z,15.80
2023-01-20T07:17:58.034Z,15.67
2023-01-20T07:20:27.355Z,15.67
2023-01-20T07:22:56.589Z,15.76
2023-01-20T07:25:26.431Z,15.76
2023-01-20T07:27:56.326Z,15.81
2023-01-20T07:30:26.687Z,15.88
2023-01-20T07:32:56.160Z,15.83
2023-01-20T07:35:25.540Z,15.60
2023-01-20T07:37:55.008Z,15.48
2023-01-20T07:40:24.489Z,15.71
2023-01-20T07:42:53.148Z,15.91
2023-01-20T07:45:22.562Z,15.77
2023-01-20T07:47:51.959Z,15.53
2023-01-20T07:50:21.332Z,15.70
2023-01-20T07:52:50.815Z,15.25
2023-01-20T07:55:20.603Z,15.49
2023-01-20T07:57:50.015Z,15.61
2023-01-20T08:00:22.503Z,15.83
2023-01-20T08:02:51.866Z,15.73
2023-01-20T08:05:21.604Z,15.70
2023-01-20T08:07:55.126Z,15.80
2023-01-20T08:10:24.643Z,15.73
2023-01-20T08:12:54.352Z,15.66
2023-01-20T08:15:24.104Z,15.59
2023-01-20T08:17:58.573Z,15.90
2023-01-20T08:20:28.575Z,15.85
2023-01-20T08:22:58.241Z,15.73
2023-01-20T08:25:28.451Z,15.88
2023-01-20T08:27:58.135Z,15.92
2023-01-20T08:30:27.666Z,16.04
2023-01-20T08:32:57.708Z,16.07
2023-01-20T08:35:27.672Z,16.12
2023-01-20T08:37:57.249Z,16.14
2023-01-20T08:40:26.898Z,15.79
2023-01-20T08:42:56.544Z,15.96
2023-01-20T08:45:26.399Z,16.21
2023-01-20T08:47:56.365Z,15.75
2023-01-20T08:50:26.275Z,15.73
2023-01-20T08:52:55.975Z,15.82
2023-01-20T08:55:25.658Z,16.02
2023-01-20T08:57:55.199Z,16.04
2023-01-20T09:00:25.106Z,16.00
2023-01-20T09:02:55.193Z,16.11
2023-01-20T09:05:25.154Z,16.53
2023-01-20T09:07:54.786Z,16.52
2023-01-20T09:10:24.701Z,16.63
2023-01-20T09:12:54.019Z,16.62
2023-01-20T09:15:25.641Z,16.71
2023-01-20T09:17:55.934Z,16.65
2023-01-20T09:20:25.939Z,16.82
2023-01-20T09:22:55.573Z,16.72
2023-01-20T09:25:24.987Z,16.37
2023-01-20T09:27:54.683Z,16.41
2023-01-20T09:30:24.248Z,16.46
2023-01-20T09:32:56.652Z,16.51
2023-01-20T09:35:26.550Z,16.37
2023-01-20T09:38:14.725Z,16.76
2023-01-20T09:41:25.498Z,16.97
2023-01-20T09:44:02.986Z,16.50
2023-01-20T09:46:45.341Z,16.64
2023-01-20T09:49:56.297Z,16.60
2023-01-20T09:52:53.616Z,17.03
2023-01-20T09:55:45.497Z,17.10
2023-01-20T09:58:31.529Z,17.08
2023-01-20T10:01:32.051Z,17.04
2023-01-20T10:04:33.849Z,17.32
2023-01-20T10:07:15.452Z,17.04
2023-01-20T10:10:00.768Z,17.06
2023-01-20T10:12:30.007Z,17.36
2023-01-20T10:15:13.748Z,17.43
2023-01-20T10:18:01.776Z,17.30
2023-01-20T10:20:58.724Z,17.17
2023-01-20T10:23:53.544Z,17.06
2023-01-20T10:26:40.881Z,17.12
2023-01-20T10:29:19.468Z,17.12
2023-01-20T10:32:25.458Z,17.19
2023-01-20T10:34:59.513Z,16.87
2023-01-20T10:37:31.664Z,16.77
2023-01-20T10:40:35.315Z,16.94
2023-01-20T10:43:16.865Z,16.94
2023-01-20T10:45:56.259Z,17.02
2023-01-20T10:48:33.467Z,17.03
2023-01-20T10:51:02.947Z,16.77
2023-01-20T10:53:51.854Z,16.82
2023-01-20T10:56:36.414Z,16.81
2023-01-20T10:59:17.291Z,16.80
2023-01-20T11:02:02.526Z,16.68
2023-01-20T11:04:40.874Z,16.42
2023-01-20T11:07:19.695Z,16.46
2023-01-20T11:09:50.381Z,16.25
2023-01-20T11:12:27.509Z,16.35
2023-01-20T11:15:01.242Z,16.10
2023-01-20T11:17:30.954Z,15.98
2023-01-20T11:20:08.191Z,16.14
2023-01-20T11:22:39.601Z,16.16
2023-01-20T11:25:26.888Z,16.30
2023-01-20T11:27:56.574Z,16.07
2023-01-20T11:30:35.740Z,16.24
2023-01-20T11:33:18.066Z,16.08
2023-01-20T11:36:06.437Z,16.07
2023-01-20T11:38:50.419Z,15.99
2023-01-20T11:41:31.420Z,15.87
2023-01-20T11:44:02.608Z,15.80
2023-01-20T11:46:39.565Z,15.72
2023-01-20T11:49:23.359Z,15.78
2023-01-20T11:51:59.678Z,15.58
2023-01-20T11:54:31.758Z,15.55
2023-01-20T11:57:08.743Z,15.68
2023-01-20T11:59:47.820Z,15.63
2023-01-20T12:02:17.399Z,15.54
2023-01-20T12:04:54.220Z,15.66
2023-01-20T12:07:47.871Z,15.80
2023-01-20T12:10:29.725Z,15.77
2023-01-20T12:13:19.003Z,15.82
2023-01-20T12:15:55.992Z,15.67
2023-01-20T12:18:31.796Z,15.74
2023-01-20T12:21:10.474Z,15.72
2023-01-20T12:23:46.738Z,15.69
2023-01-20T12:26:19.514Z,15.63
2023-01-20T12:29:09.134Z,15.58
2023-01-20T12:31:39.035Z,15.45
2023-01-20T12:34:22.516Z,15.54
2023-01-20T12:37:12.979Z,15.54
2023-01-20T12:39:48.485Z,15.44
2023-01-20T12:42:36.297Z,15.32
2023-01-20T12:45:12.392Z,15.34
2023-01-20T12:48:18.879Z,15.43
2023-01-20T12:51:09.305Z,15.32
2023-01-20T12:53:44.786Z,15.35
2023-01-20T12:56:47.767Z,15.36
2023-01-20T12:59:45.312Z,15.36
2023-01-20T13:02:17.891Z,15.17
2023-01-20T13:04:47.002Z,15.42
2023-01-20T13:07:16.828Z,15.28
2023-01-20T13:09:58.529Z,15.25
2023-01-20T13:12:52.525Z,15.17
2023-01-20T13:15:38.137Z,15.23
2023-01-20T13:18:26.403Z,15.24
2023-01-20T13:20:57.184Z,15.17
2023-01-20T13:23:34.948Z,15.25
2023-01-20T13:26:06.780Z,15.21
2023-01-20T13:28:36.597Z,15.15
2023-01-20T13:31:38.211Z,15.29
2023-01-20T13:34:23.512Z,15.24
2023-01-20T13:37:05.308Z,15.19
2023-01-20T13:39:47.167Z,15.12
2023-01-20T13:42:38.053Z,14.98
2023-01-20T13:45:13.934Z,14.99
2023-01-20T13:48:08.384Z,15.03
2023-01-20T13:50:40.261Z,14.76
2023-01-20T13:53:12.790Z,14.87
2023-01-20T13:55:50.555Z,14.90
2023-01-20T13:58:27.222Z,14.96
2023-01-20T14:01:00.900Z,14.84
2023-01-20T14:03:31.704Z,14.88
2023-01-20T14:06:19.670Z,14.84
2023-01-20T14:08:51.800Z,14.83
2023-01-20T14:11:24.371Z,14.87
2023-01-20T14:13:53.546Z,15.03
2023-01-20T14:16:30.677Z,14.97
2023-01-20T14:19:36.379Z,14.94
2023-01-20T14:22:24.980Z,14.98
2023-01-20T14:25:01.226Z,14.85
2023-01-20T14:27:34.534Z,14.90
2023-01-20T14:30:26.249Z,15.04
2023-01-20T14:32:56.098Z,14.82
2023-01-20T14:35:35.240Z,15.03
2023-01-20T14:38:05.147Z,14.90
2023-01-20T14:40:37.457Z,14.92
2023-01-20T14:43:21.449Z,14.98
2023-01-20T14:45:55.975Z,14.84
2023-01-20T14:48:34.532Z,14.82
2023-01-20T14:51:07.054Z,14.91
2023-01-20T14:53:37.428Z,14.80
2023-01-20T14:56:20.311Z,14.98
2023-01-20T14:58:50.389Z,15.10
2023-01-20T15:01:25.891Z,14.98
2023-01-20T15:04:04.226Z,14.96
2023-01-20T15:06:34.000Z,14.82
2023-01-20T15:09:06.927Z,14.87
2023-01-20T15:11:37.894Z,14.74
2023-01-20T15:14:11.848Z,14.80
2023-01-20T15:16:48.648Z,14.70
2023-01-20T15:19:18.582Z,14.73
2023-01-20T15:21:51.282Z,14.75
2023-01-20T15:24:22.043Z,14.99
2023-01-20T15:26:53.808Z,14.83
2023-01-20T15:29:28.241Z,14.75
2023-01-20T15:32:00.315Z,14.86
2023-01-20T15:34:30.901Z,14.59
2023-01-20T15:37:00.747Z,14.68
2023-01-20T15:39:31.326Z,14.74
2023-01-20T15:42:02.665Z,14.74
2023-01-20T15:44:32.414Z,14.74
2023-01-20T15:47:02.417Z,14.73
2023-01-20T15:49:31.896Z,14.71
2023-01-20T15:52:01.518Z,14.65
2023-01-20T15:54:31.083Z,14.69
2023-01-20T15:57:01.671Z,14.77
2023-01-20T15:59:33.626Z,14.71
2023-01-20T16:02:03.651Z,14.74
2023-01-20T16:04:33.514Z,14.69
2023-01-20T16:07:03.145Z,14.70
2023-01-20T16:09:38.386Z,14.71
2023-01-20T16:12:08.101Z,14.68
2023-01-20T16:14:40.549Z,14.66
2023-01-20T16:17:17.475Z,14.89
2023-01-20T16:19:47.875Z,14.61
2023-01-20T16:22:18.504Z,14.65
2023-01-20T16:24:50.426Z,14.69
2023-01-20T16:27:24.923Z,14.75
2023-01-20T16:29:57.271Z,14.59
2023-01-20T16:32:28.253Z,14.66
2023-01-20T16:34:58.853Z,14.67
2023-01-20T16:37:29.621Z,14.71
2023-01-20T16:40:00.748Z,14.68
2023-01-20T16:42:32.761Z,14.65
2023-01-20T16:45:06.989Z,14.59
2023-01-20T16:47:37.525Z,14.64
2023-01-20T16:50:08.597Z,14.62
2023-01-20T16:52:38.868Z,14.55
2023-01-20T16:55:11.603Z,14.58
2023-01-20T16:57:45.172Z,14.46
2023-01-20T17:00:18.694Z,14.47
2023-01-20T17:02:55.641Z,14.52
2023-01-20T17:05:29.274Z,14.45
2023-01-20T17:08:01.591Z,14.49
2023-01-20T17:10:36.719Z,14.53
2023-01-20T17:13:14.591Z,14.51
2023-01-20T17:15:45.192Z,14.30
2023-01-20T17:18:15.577Z,14.37
2023-01-20T17:20:46.052Z,14.39
2023-01-20T17:23:19.966Z,14.45
2023-01-20T17:25:50.583Z,14.47
2023-01-20T17:28:20.953Z,14.43
2023-01-20T17:30:51.592Z,14.42
2023-01-20T17:33:22.089Z,14.36
2023-01-20T17:36:05.456Z,14.54
2023-01-20T17:38:37.526Z,14.43
2023-01-20T17:41:16.786Z,14.37
2023-01-20T17:43:50.922Z,14.31
2023-01-20T17:46:23.759Z,14.32
2023-01-20T17:48:54.365Z,14.16
2023-01-20T17:51:27.202Z,14.26
2023-01-20T17:54:03.415Z,14.21
2023-01-20T17:56:34.495Z,14.09
2023-01-20T17:59:09.120Z,13.94
2023-01-20T18:01:45.542Z,13.85
2023-01-20T18:04:16.196Z,14.01
2023-01-20T18:06:52.171Z,14.03
2023-01-20T18:09:22.841Z,13.99
2023-01-20T18:11:53.447Z,14.03
2023-01-20T18:14:23.823Z,14.02
2023-01-20T18:16:55.704Z,13.94
2023-01-20T18:19:25.994Z,13.88
2023-01-20T18:21:56.313Z,13.88
2023-01-20T18:24:26.531Z,13.85
2023-01-20T18:26:57.937Z,13.85
2023-01-20T18:29:31.091Z,13.82
2023-01-20T18:32:01.186Z,13.79
2023-01-20T18:34:31.063Z,13.78
2023-01-20T18:37:00.813Z,13.77
2023-01-20T18:39:31.259Z,13.72
2023-01-20T18:42:01.451Z,13.72
2023-01-20T18:44:31.607Z,13.46
2023-01-20T18:47:01.481Z,13.51
2023-01-20T18:52:51.243Z,13.45
2023-01-20T18:55:20.935Z,13.46
2023-01-20T18:57:50.449Z,13.44
2023-01-20T19:00:20.516Z,13.45
2023-01-20T19:02:53.739Z,13.28
2023-01-20T19:05:23.409Z,13.17
2023-01-20T19:07:53.488Z,13.31
2023-01-20T19:10:23.080Z,13.12
2023-01-20T19:12:53.885Z,13.13
2023-01-20T19:15:23.353Z,12.87
2023-01-20T19:17:56.110Z,12.86
2023-01-20T19:20:25.896Z,12.94
2023-01-20T19:22:55.394Z,12.95
2023-01-20T19:25:30.714Z,12.86
2023-01-20T19:28:00.360Z,12.90
2023-01-20T19:30:30.367Z,12.91
2023-01-20T19:32:59.749Z,12.76
2023-01-20T19:35:31.402Z,12.99
2023-01-20T19:38:01.102Z,12.94
2023-01-20T19:40:30.617Z,12.52
2023-01-20T19:43:02.169Z,12.57
2023-01-20T19:45:44.879Z,12.30
2023-01-20T19:48:15.468Z,12.33
2023-01-20T19:50:45.345Z,12.63
2023-01-20T19:53:14.940Z,12.47
2023-01-20T19:55:44.596Z,12.48
2023-01-20T19:58:14.076Z,12.58
2023-01-20T20:00:43.520Z,12.65
2023-01-20T20:03:13.170Z,12.56
2023-01-20T20:05:42.628Z,12.19
2023-01-20T20:08:12.319Z,12.39
2023-01-20T20:10:45.141Z,12.49
2023-01-20T20:13:14.671Z,12.31
2023-01-20T20:15:44.185Z,12.07
2023-01-20T20:18:13.840Z,11.81
2023-01-20T20:20:46.220Z,11.95
2023-01-20T20:23:15.782Z,12.05
2023-01-20T20:25:51.167Z,12.30
2023-01-20T20:28:20.782Z,12.16
2023-01-20T20:30:50.245Z,12.23
2023-01-20T20:33:20.411Z,11.93
2023-01-20T20:35:50.488Z,12.07
2023-01-20T20:38:20.410Z,12.20
2023-01-20T20:40:50.093Z,12.06
2023-01-20T20:43:24.061Z,11.90
2023-01-20T20:46:00.566Z,11.93
2023-01-20T20:48:30.983Z,11.75
2023-01-20T20:51:07.236Z,12.07
2023-01-20T20:53:37.118Z,12.05
2023-01-20T20:56:11.884Z,12.09
2023-01-20T20:58:55.532Z,12.02
2023-01-20T21:01:29.917Z,11.95
2023-01-20T21:04:01.575Z,12.08
2023-01-20T21:06:32.018Z,12.12
2023-01-20T21:09:02.046Z,12.00
2023-01-20T21:11:31.594Z,11.81
2023-01-20T21:14:01.131Z,11.87
2023-01-20T21:16:31.038Z,11.62
2023-01-20T21:19:02.383Z,11.85
2023-01-20T21:21:32.066Z,11.75
2023-01-20T21:24:01.394Z,11.88
2023-01-20T21:26:31.140Z,11.93
2023-01-20T21:29:04.949Z,11.87
2023-01-20T21:31:35.671Z,11.85
2023-01-20T21:34:05.510Z,11.81
2023-01-20T21:36:35.748Z,11.82
2023-01-20T21:39:06.451Z,11.83
2023-01-20T21:41:36.237Z,11.65
2023-01-20T21:44:23.886Z,11.75
2023-01-20T21:46:53.586Z,11.71
2023-01-20T21:49:41.303Z,11.70
2023-01-20T21:52:34.602Z,11.89
2023-01-20T21:55:05.476Z,11.89
2023-01-20T21:57:35.291Z,11.67
2023-01-20T22:00:08.161Z,11.88
2023-01-20T22:02:48.130Z,11.87
2023-01-20T22:05:17.827Z,11.45
2023-01-20T22:07:49.153Z,11.52
2023-01-20T22:10:18.984Z,11.73
2023-01-20T22:12:48.813Z,11.54
2023-01-20T22:15:18.499Z,11.56
2023-01-20T22:17:48.759Z,11.61
2023-01-20T22:20:19.028Z,11.38
2023-01-20T22:22:48.687Z,11.15
2023-01-20T22:25:18.200Z,11.43
2023-01-20T22:27:50.286Z,11.62
2023-01-20T22:30:20.372Z,11.53
2023-01-20T22:32:50.143Z,11.59
2023-01-20T22:35:19.707Z,11.56
2023-01-20T22:37:49.154Z,11.48
2023-01-20T22:40:18.880Z,11.45
2023-01-20T22:42:48.626Z,11.57
2023-01-20T22:45:18.131Z,11.23
2023-01-20T22:47:47.618Z,11.33
2023-01-20T22:50:17.686Z,11.43
2023-01-20T22:52:47.669Z,11.10
2023-01-20T22:55:17.517Z,11.00
2023-01-20T22:57:47.282Z,11.09
2023-01-20T23:00:18.768Z,11.31
2023-01-20T23:02:48.790Z,11.49
2023-01-20T23:05:18.476Z,11.50
2023-01-20T23:07:48.140Z,11.56
2023-01-20T23:10:37.696Z,11.52
2023-01-20T23:13:07.506Z,11.32
2023-01-20T23:15:36.839Z,11.44
2023-01-20T23:18:06.957Z,11.37
2023-01-20T23:20:36.820Z,11.43
2023-01-20T23:23:06.910Z,11.45
2023-01-20T23:25:36.901Z,11.49
2023-01-20T23:28:06.708Z,11.43
2023-01-20T23:30:36.326Z,11.33
2023-01-20T23:33:06.553Z,11.23
2023-01-20T23:35:39.936Z,11.32
2023-01-20T23:38:10.752Z,11.26
2023-01-20T23:40:40.255Z,11.30
2023-01-20T23:43:10.171Z,11.30
2023-01-20T23:45:39.769Z,11.10
2023-01-20T23:48:09.335Z,11.24
2023-01-20T23:50:39.275Z,11.22
2023-01-20T23:53:08.637Z,11.21
2023-01-20T23:55:38.969Z,11.37
2023-01-20T23:58:08.571Z,11.39
